Krabi, Thaïlande

19:41 ICT le 20 août 2014 (GMT +0700)
Ao Nang, Krabi | Change Station
CLOSE
Current Station
Stations météorologiques personnelles
Location: Ao Nang, Krabi
Altitude: 177 ft
Stations météo à proximité

Alt. 177 ft 8.05 °N, 98.84 °E | Updated 18 seconds ago

Mostly Cloudy
Nuageux
79.2 ° F
Paraît 83 ° F
N
0.0
Vent Variable Vent de Nord
Gusts 0.0 mph

Aujourd'hui
Haut(e) -- | Bas -- ° F
--% Risque de précip.
Hier
Haut(e) -- | Bas -- ° F
Precip. -- pouce
6:16 AM 6:38 PM
Lune descendante, 22% visible
Pression 29.83 pouce
Visibilité 5.0 Miles terrestres
Nuages Nuages épars 1500 ft
Nuageux 12000 ft
Nuageux 30000 ft
indice de chaleur 83 ° F
Point de rosée 75 ° F
Humidité 88%
Précipitations 0.00 pouce
Profondeur de la couche neigeuse Non disponible.
UV 0 sur 12
Pollen Non disponible.
Qualité de l'air Non disponible.
Flu Activity Non disponible.
METAR VTSP 201230Z 31003KT 8000 SCT015 BKN120 BKN300 26/23 Q1010 A2984 NOSIG

More Conditions Fewer Conditions

Pression 29.83 pouce
Visibilité 5.0 Miles terrestres
Nuages Nuages épars 1500 ft
Nuageux 12000 ft
Nuageux 30000 ft
indice de chaleur 83 ° F
Point de rosée 75 ° F
Humidité 88%
Précipitations 0.00 pouce
Profondeur de la couche neigeuse Non disponible.
UV 0 sur 12
Pollen Non disponible.
Qualité de l'air Non disponible.
Flu Activity Non disponible.
METAR VTSP 201230Z 31003KT 8000 SCT015 BKN120 BKN300 26/23 Q1010 A2984 NOSIG

More Conditions Fewer Conditions

10-Day Weather Forecast

Almanac

Astronomie

Aug. 20, 2014 Lever Coucher
Temps réel 06:16 ICT 18:38 ICT
Crépuscule civil 05:55 ICT 18:59 ICT
Crépuscule nautique 05:30 ICT 19:24 ICT
Crépuscule astronomique 05:05 ICT 19:49 ICT
Lune 01:51 ICT 14:37 ICT
Durée de lumière visible 13h 04m
Longueur du jour
12h 21m
Tomorrow will be 0m 23s shorter.
Lune descendante, 22% of the Moon is Illuminated
Aujourd'hui
Lune descendante
août 25
Nouveau
Sep 2
Premier quartier
Sep 8
Pleine lune
Sep 15
Dernier quartier

Les extrêmes de température d’hier

Country Highs Country Lows

Community

WunderPhotos

Upload Photos

1,745,618 Photos téléchargées !

Nearby

Qualité de l'air

Not available.

Épaisseur de neige

Not available.

Activité sismique

Ville Distance Mag. Time & Date
No recent earthquake activity has been reported nearby.
Minimum magnitude displayed is 2.5.

Températures des eaux côtières

Lieu Température
Aucun rapport de station

Stations météo à proximité